sensor_id;sensor_type;location;lat;lon;timestamp;temperature;humidity
52323;DHT22;38263;52.920;6.238;2022-09-09T00:02:19;14.30;99.90
52323;DHT22;38263;52.920;6.238;2022-09-09T00:05:36;14.20;99.90
52323;DHT22;38263;52.920;6.238;2022-09-09T00:07:43;14.10;99.90
52323;DHT22;38263;52.920;6.238;2022-09-09T00:10:30;14.20;99.90
52323;DHT22;38263;52.920;6.238;2022-09-09T00:13:18;14.10;99.90
52323;DHT22;38263;52.920;6.238;2022-09-09T00:21:07;14.10;99.90
52323;DHT22;38263;52.920;6.238;2022-09-09T00:23:37;14.30;99.90
52323;DHT22;38263;52.920;6.238;2022-09-09T00:26:32;14.20;99.90
52323;DHT22;38263;52.920;6.238;2022-09-09T00:29:33;14.00;99.90
52323;DHT22;38263;52.920;6.238;2022-09-09T00:32:12;14.30;99.90
52323;DHT22;38263;52.920;6.238;2022-09-09T00:34:42;14.30;99.90
52323;DHT22;38263;52.920;6.238;2022-09-09T00:37:09;14.20;99.90
52323;DHT22;38263;52.920;6.238;2022-09-09T00:39:42;14.20;99.90
52323;DHT22;38263;52.920;6.238;2022-09-09T00:45:02;14.30;99.90
52323;DHT22;38263;52.920;6.238;2022-09-09T00:47:43;14.40;99.90
52323;DHT22;38263;52.920;6.238;2022-09-09T00:50:31;14.30;99.90
52323;DHT22;38263;52.920;6.238;2022-09-09T00:53:21;14.20;99.90
52323;DHT22;38263;52.920;6.238;2022-09-09T00:56:12;14.20;99.90
52323;DHT22;38263;52.920;6.238;2022-09-09T00:58:38;14.20;99.90
52323;DHT22;38263;52.920;6.238;2022-09-09T01:01:07;14.20;99.90
52323;DHT22;38263;52.920;6.238;2022-09-09T01:03:44;14.10;99.90
52323;DHT22;38263;52.920;6.238;2022-09-09T01:06:35;14.10;99.90
52323;DHT22;38263;52.920;6.238;2022-09-09T01:09:24;14.30;99.90
52323;DHT22;38263;52.920;6.238;2022-09-09T01:12:14;14.40;99.90
52323;DHT22;38263;52.920;6.238;2022-09-09T01:15:11;14.40;99.90
52323;DHT22;38263;52.920;6.238;2022-09-09T01:18:04;14.30;99.90
52323;DHT22;38263;52.920;6.238;2022-09-09T01:24:12;14.30;99.90
52323;DHT22;38263;52.920;6.238;2022-09-09T01:26:45;14.30;99.90
52323;DHT22;38263;52.920;6.238;2022-09-09T01:29:18;14.50;99.90
52323;DHT22;38263;52.920;6.238;2022-09-09T01:32:02;14.30;99.90
52323;DHT22;38263;52.920;6.238;2022-09-09T01:34:46;14.40;99.90
52323;DHT22;38263;52.920;6.238;2022-09-09T01:37:12;14.40;99.90
52323;DHT22;38263;52.920;6.238;2022-09-09T01:39:40;14.50;99.90
52323;DHT22;38263;52.920;6.238;2022-09-09T01:42:09;14.40;99.90
52323;DHT22;38263;52.920;6.238;2022-09-09T01:44:36;14.30;99.90
52323;DHT22;38263;52.920;6.238;2022-09-09T01:47:03;14.50;99.90
52323;DHT22;38263;52.920;6.238;2022-09-09T01:49:29;14.40;99.90
52323;DHT22;38263;52.920;6.238;2022-09-09T01:51:55;14.50;99.90
52323;DHT22;38263;52.920;6.238;2022-09-09T01:54:25;14.40;99.90
52323;DHT22;38263;52.920;6.238;2022-09-09T02:02:36;14.40;99.90
52323;DHT22;38263;52.920;6.238;2022-09-09T02:11:04;14.30;99.90
52323;DHT22;38263;52.920;6.238;2022-09-09T02:13:32;14.30;99.90
52323;DHT22;38263;52.920;6.238;2022-09-09T02:18:37;14.50;99.90
52323;DHT22;38263;52.920;6.238;2022-09-09T02:21:05;14.60;99.90
52323;DHT22;38263;52.920;6.238;2022-09-09T02:23:32;14.40;99.90
52323;DHT22;38263;52.920;6.238;2022-09-09T02:26:00;14.30;99.90
52323;DHT22;38263;52.920;6.238;2022-09-09T02:28:29;14.50;99.90
52323;DHT22;38263;52.920;6.238;2022-09-09T02:30:56;14.50;99.90
52323;DHT22;38263;52.920;6.238;2022-09-09T02:33:28;14.30;99.90
52323;DHT22;38263;52.920;6.238;2022-09-09T02:35:56;14.40;99.90
52323;DHT22;38263;52.920;6.238;2022-09-09T02:38:28;14.50;99.90
52323;DHT22;38263;52.920;6.238;2022-09-09T02:40:54;14.50;99.90
52323;DHT22;38263;52.920;6.238;2022-09-09T02:43:20;14.50;99.90
52323;DHT22;38263;52.920;6.238;2022-09-09T02:49:02;14.50;99.90
52323;DHT22;38263;52.920;6.238;2022-09-09T02:51:53;14.50;99.90
52323;DHT22;38263;52.920;6.238;2022-09-09T02:54:34;14.50;99.90
52323;DHT22;38263;52.920;6.238;2022-09-09T02:57:22;14.70;99.90
52323;DHT22;38263;52.920;6.238;2022-09-09T02:59:49;14.70;99.90
52323;DHT22;38263;52.920;6.238;2022-09-09T03:02:15;14.60;99.90
52323;DHT22;38263;52.920;6.238;2022-09-09T03:04:41;14.70;99.90
52323;DHT22;38263;52.920;6.238;2022-09-09T03:07:10;14.80;99.90
52323;DHT22;38263;52.920;6.238;2022-09-09T03:09:35;14.70;99.90
52323;DHT22;38263;52.920;6.238;2022-09-09T03:12:01;14.40;99.90
52323;DHT22;38263;52.920;6.238;2022-09-09T03:14:27;14.50;99.90
52323;DHT22;38263;52.920;6.238;2022-09-09T03:16:53;14.50;99.90
52323;DHT22;38263;52.920;6.238;2022-09-09T03:19:20;14.60;99.90
52323;DHT22;38263;52.920;6.238;2022-09-09T03:21:46;14.50;99.90
52323;DHT22;38263;52.920;6.238;2022-09-09T03:24:13;14.60;99.90
52323;DHT22;38263;52.920;6.238;2022-09-09T03:26:39;14.60;99.90
52323;DHT22;38263;52.920;6.238;2022-09-09T03:29:06;14.60;99.90
52323;DHT22;38263;52.920;6.238;2022-09-09T03:31:35;14.50;99.90
52323;DHT22;38263;52.920;6.238;2022-09-09T03:34:02;14.50;99.90
52323;DHT22;38263;52.920;6.238;2022-09-09T03:36:27;14.50;99.90
52323;DHT22;38263;52.920;6.238;2022-09-09T03:38:54;14.50;99.90
52323;DHT22;38263;52.920;6.238;2022-09-09T03:41:23;14.60;99.90
52323;DHT22;38263;52.920;6.238;2022-09-09T03:43:53;14.50;99.90
52323;DHT22;38263;52.920;6.238;2022-09-09T03:46:20;14.70;99.90
52323;DHT22;38263;52.920;6.238;2022-09-09T03:48:46;14.70;99.90
52323;DHT22;38263;52.920;6.238;2022-09-09T03:53:38;14.40;99.90
52323;DHT22;38263;52.920;6.238;2022-09-09T03:56:04;14.70;99.90
52323;DHT22;38263;52.920;6.238;2022-09-09T03:58:32;14.50;99.90
52323;DHT22;38263;52.920;6.238;2022-09-09T04:01:00;14.50;99.90
52323;DHT22;38263;52.920;6.238;2022-09-09T04:03:27;14.70;99.90
52323;DHT22;38263;52.920;6.238;2022-09-09T04:05:53;14.50;99.90
52323;DHT22;38263;52.920;6.238;2022-09-09T04:08:20;14.50;99.90
52323;DHT22;38263;52.920;6.238;2022-09-09T04:10:47;14.50;99.90
52323;DHT22;38263;52.920;6.238;2022-09-09T04:13:14;14.50;99.90
52323;DHT22;38263;52.920;6.238;2022-09-09T04:15:40;14.80;99.90
52323;DHT22;38263;52.920;6.238;2022-09-09T04:18:06;14.60;99.90
52323;DHT22;38263;52.920;6.238;2022-09-09T04:20:32;14.50;99.90
52323;DHT22;38263;52.920;6.238;2022-09-09T04:22:58;14.60;99.90
52323;DHT22;38263;52.920;6.238;2022-09-09T04:25:24;14.60;99.90
52323;DHT22;38263;52.920;6.238;2022-09-09T04:27:56;14.70;99.90
52323;DHT22;38263;52.920;6.238;2022-09-09T04:30:23;14.70;99.90
52323;DHT22;38263;52.920;6.238;2022-09-09T04:32:49;14.50;99.90
52323;DHT22;38263;52.920;6.238;2022-09-09T04:35:14;14.50;99.90
52323;DHT22;38263;52.920;6.238;2022-09-09T04:37:40;14.60;99.90
52323;DHT22;38263;52.920;6.238;2022-09-09T04:40:06;14.60;99.90
52323;DHT22;38263;52.920;6.238;2022-09-09T04:42:35;14.80;99.90
52323;DHT22;38263;52.920;6.238;2022-09-09T04:45:01;14.60;99.90
52323;DHT22;38263;52.920;6.238;2022-09-09T04:47:27;14.50;99.90
52323;DHT22;38263;52.920;6.238;2022-09-09T04:49:52;14.60;99.90
52323;DHT22;38263;52.920;6.238;2022-09-09T04:52:20;14.50;99.90
52323;DHT22;38263;52.920;6.238;2022-09-09T04:54:45;14.40;99.90
52323;DHT22;38263;52.920;6.238;2022-09-09T04:57:11;14.60;99.90
52323;DHT22;38263;52.920;6.238;2022-09-09T04:59:36;14.60;99.90
52323;DHT22;38263;52.920;6.238;2022-09-09T05:02:03;14.50;99.90
52323;DHT22;38263;52.920;6.238;2022-09-09T05:04:29;14.40;99.90
52323;DHT22;38263;52.920;6.238;2022-09-09T05:06:55;14.30;99.90
52323;DHT22;38263;52.920;6.238;2022-09-09T05:09:21;14.60;99.90
52323;DHT22;38263;52.920;6.238;2022-09-09T05:11:46;14.50;99.90
52323;DHT22;38263;52.920;6.238;2022-09-09T05:14:12;14.30;99.90
52323;DHT22;38263;52.920;6.238;2022-09-09T05:16:37;14.40;99.90
52323;DHT22;38263;52.920;6.238;2022-09-09T05:19:03;14.40;99.90
52323;DHT22;38263;52.920;6.238;2022-09-09T05:21:29;14.50;99.90
52323;DHT22;38263;52.920;6.238;2022-09-09T05:23:56;14.40;99.90
52323;DHT22;38263;52.920;6.238;2022-09-09T05:26:23;14.40;99.90
52323;DHT22;38263;52.920;6.238;2022-09-09T05:28:49;14.30;99.90
52323;DHT22;38263;52.920;6.238;2022-09-09T05:31:16;14.20;99.90
52323;DHT22;38263;52.920;6.238;2022-09-09T05:33:43;14.40;99.90
52323;DHT22;38263;52.920;6.238;2022-09-09T05:36:16;14.40;99.90
52323;DHT22;38263;52.920;6.238;2022-09-09T05:38:43;14.30;99.90
52323;DHT22;38263;52.920;6.238;2022-09-09T05:41:10;14.30;99.90
52323;DHT22;38263;52.920;6.238;2022-09-09T05:43:41;14.40;99.90
52323;DHT22;38263;52.920;6.238;2022-09-09T05:48:42;14.50;99.90
52323;DHT22;38263;52.920;6.238;2022-09-09T05:51:10;14.40;99.90
52323;DHT22;38263;52.920;6.238;2022-09-09T05:53:38;14.40;99.90
52323;DHT22;38263;52.920;6.238;2022-09-09T05:56:15;14.40;99.90
52323;DHT22;38263;52.920;6.238;2022-09-09T05:58:41;14.30;99.90
52323;DHT22;38263;52.920;6.238;2022-09-09T06:01:10;14.40;99.90
52323;DHT22;38263;52.920;6.238;2022-09-09T06:03:37;14.40;99.90
52323;DHT22;38263;52.920;6.238;2022-09-09T06:06:05;14.40;99.90
52323;DHT22;38263;52.920;6.238;2022-09-09T06:08:35;14.50;99.90
52323;DHT22;38263;52.920;6.238;2022-09-09T06:11:09;14.40;99.90
52323;DHT22;38263;52.920;6.238;2022-09-09T06:13:36;14.40;99.90
52323;DHT22;38263;52.920;6.238;2022-09-09T06:16:16;14.40;99.90
52323;DHT22;38263;52.920;6.238;2022-09-09T06:18:42;14.30;99.90
52323;DHT22;38263;52.920;6.238;2022-09-09T06:21:15;14.40;99.90
52323;DHT22;38263;52.920;6.238;2022-09-09T06:23:42;14.50;99.90
52323;DHT22;38263;52.920;6.238;2022-09-09T06:26:16;14.40;99.90
52323;DHT22;38263;52.920;6.238;2022-09-09T06:28:45;14.30;99.90
52323;DHT22;38263;52.920;6.238;2022-09-09T06:31:12;14.40;99.90
52323;DHT22;38263;52.920;6.238;2022-09-09T06:33:40;14.30;99.90
52323;DHT22;38263;52.920;6.238;2022-09-09T06:36:10;14.40;99.90
52323;DHT22;38263;52.920;6.238;2022-09-09T06:38:36;14.40;99.90
52323;DHT22;38263;52.920;6.238;2022-09-09T06:41:02;14.50;99.90
52323;DHT22;38263;52.920;6.238;2022-09-09T06:43:27;14.40;99.90
52323;DHT22;38263;52.920;6.238;2022-09-09T06:45:58;14.50;99.90
52323;DHT22;38263;52.920;6.238;2022-09-09T06:48:24;14.40;99.90
52323;DHT22;38263;52.920;6.238;2022-09-09T06:53:28;14.50;99.90
52323;DHT22;38263;52.920;6.238;2022-09-09T06:55:53;14.50;99.90
52323;DHT22;38263;52.920;6.238;2022-09-09T06:58:20;14.50;99.90
52323;DHT22;38263;52.920;6.238;2022-09-09T07:00:47;14.60;99.90
52323;DHT22;38263;52.920;6.238;2022-09-09T07:03:13;14.60;99.90
52323;DHT22;38263;52.920;6.238;2022-09-09T07:05:38;14.50;99.90
52323;DHT22;38263;52.920;6.238;2022-09-09T07:08:04;14.60;99.90
52323;DHT22;38263;52.920;6.238;2022-09-09T07:10:30;14.70;99.90
52323;DHT22;38263;52.920;6.238;2022-09-09T07:12:56;14.80;99.90
52323;DHT22;38263;52.920;6.238;2022-09-09T07:17:48;14.80;99.90
52323;DHT22;38263;52.920;6.238;2022-09-09T07:20:14;15.00;99.90
52323;DHT22;38263;52.920;6.238;2022-09-09T07:22:41;14.90;99.90
52323;DHT22;38263;52.920;6.238;2022-09-09T07:25:07;14.90;99.90
52323;DHT22;38263;52.920;6.238;2022-09-09T07:27:33;14.90;99.90
52323;DHT22;38263;52.920;6.238;2022-09-09T07:29:58;15.00;99.90
52323;DHT22;38263;52.920;6.238;2022-09-09T07:32:24;15.00;99.90
52323;DHT22;38263;52.920;6.238;2022-09-09T07:34:51;15.10;99.90
52323;DHT22;38263;52.920;6.238;2022-09-09T07:37:17;15.10;99.90
52323;DHT22;38263;52.920;6.238;2022-09-09T07:39:43;15.00;99.90
52323;DHT22;38263;52.920;6.238;2022-09-09T07:42:09;15.50;99.90
52323;DHT22;38263;52.920;6.238;2022-09-09T07:44:37;15.60;99.90
52323;DHT22;38263;52.920;6.238;2022-09-09T07:47:05;15.80;99.90
52323;DHT22;38263;52.920;6.238;2022-09-09T07:49:30;16.10;99.90
52323;DHT22;38263;52.920;6.238;2022-09-09T07:51:57;16.00;99.90
52323;DHT22;38263;52.920;6.238;2022-09-09T07:54:23;16.30;99.90
52323;DHT22;38263;52.920;6.238;2022-09-09T07:56:49;16.30;99.90
52323;DHT22;38263;52.920;6.238;2022-09-09T07:59:16;16.50;99.90
52323;DHT22;38263;52.920;6.238;2022-09-09T08:01:52;16.50;99.90
52323;DHT22;38263;52.920;6.238;2022-09-09T08:04:21;16.60;99.90
52323;DHT22;38263;52.920;6.238;2022-09-09T08:06:53;16.50;99.90
52323;DHT22;38263;52.920;6.238;2022-09-09T08:09:20;16.60;99.90
52323;DHT22;38263;52.920;6.238;2022-09-09T08:11:46;16.50;99.90
52323;DHT22;38263;52.920;6.238;2022-09-09T08:14:13;16.60;99.90
52323;DHT22;38263;52.920;6.238;2022-09-09T08:16:41;16.60;99.90
52323;DHT22;38263;52.920;6.238;2022-09-09T08:19:07;16.70;99.90
52323;DHT22;38263;52.920;6.238;2022-09-09T08:21:35;16.70;99.90
52323;DHT22;38263;52.920;6.238;2022-09-09T08:24:02;16.70;99.90
52323;DHT22;38263;52.920;6.238;2022-09-09T08:26:31;16.70;99.90
52323;DHT22;38263;52.920;6.238;2022-09-09T08:28:58;16.90;99.90
52323;DHT22;38263;52.920;6.238;2022-09-09T08:31:30;17.00;99.90
52323;DHT22;38263;52.920;6.238;2022-09-09T08:33:57;17.20;99.90
52323;DHT22;38263;52.920;6.238;2022-09-09T08:36:27;17.20;99.90
52323;DHT22;38263;52.920;6.238;2022-09-09T08:38:56;17.20;99.90
52323;DHT22;38263;52.920;6.238;2022-09-09T08:50:12;17.30;99.90
52323;DHT22;38263;52.920;6.238;2022-09-09T08:58:19;17.60;99.90
52323;DHT22;38263;52.920;6.238;2022-09-09T09:04:02;17.60;99.90
52323;DHT22;38263;52.920;6.238;2022-09-09T09:09:12;17.90;99.90
52323;DHT22;38263;52.920;6.238;2022-09-09T09:12:00;17.70;99.90
52323;DHT22;38263;52.920;6.238;2022-09-09T09:14:31;17.60;99.90
52323;DHT22;38263;52.920;6.238;2022-09-09T09:17:31;17.50;99.90
52323;DHT22;38263;52.920;6.238;2022-09-09T09:19:58;17.70;99.90
52323;DHT22;38263;52.920;6.238;2022-09-09T09:22:50;17.50;99.90
52323;DHT22;38263;52.920;6.238;2022-09-09T09:25:31;17.50;99.90
52323;DHT22;38263;52.920;6.238;2022-09-09T09:27:59;17.40;99.90
52323;DHT22;38263;52.920;6.238;2022-09-09T09:30:31;17.50;99.90
52323;DHT22;38263;52.920;6.238;2022-09-09T09:33:08;17.50;99.90
52323;DHT22;38263;52.920;6.238;2022-09-09T09:35:36;17.50;99.90
52323;DHT22;38263;52.920;6.238;2022-09-09T09:38:01;17.50;99.90
52323;DHT22;38263;52.920;6.238;2022-09-09T09:40:34;17.60;99.90
52323;DHT22;38263;52.920;6.238;2022-09-09T09:43:00;17.50;99.90
52323;DHT22;38263;52.920;6.238;2022-09-09T09:45:31;17.50;99.90
52323;DHT22;38263;52.920;6.238;2022-09-09T09:50:27;17.60;99.90
52323;DHT22;38263;52.920;6.238;2022-09-09T09:53:04;17.50;99.90
52323;DHT22;38263;52.920;6.238;2022-09-09T09:55:33;17.60;99.90
52323;DHT22;38263;52.920;6.238;2022-09-09T09:58:04;17.80;99.90
52323;DHT22;38263;52.920;6.238;2022-09-09T10:00:30;17.70;99.90
52323;DHT22;38263;52.920;6.238;2022-09-09T10:02:56;18.10;99.90
52323;DHT22;38263;52.920;6.238;2022-09-09T10:05:27;18.10;99.90
52323;DHT22;38263;52.920;6.238;2022-09-09T10:08:10;18.10;99.90
52323;DHT22;38263;52.920;6.238;2022-09-09T10:11:07;18.60;99.90
52323;DHT22;38263;52.920;6.238;2022-09-09T10:14:05;18.80;99.90
52323;DHT22;38263;52.920;6.238;2022-09-09T10:19:30;18.80;99.90
52323;DHT22;38263;52.920;6.238;2022-09-09T10:30:19;19.20;99.90
52323;DHT22;38263;52.920;6.238;2022-09-09T10:33:04;19.10;99.90
52323;DHT22;38263;52.920;6.238;2022-09-09T10:35:53;19.00;99.90
52323;DHT22;38263;52.920;6.238;2022-09-09T10:38:37;19.10;99.90
52323;DHT22;38263;52.920;6.238;2022-09-09T10:41:17;18.80;99.90
52323;DHT22;38263;52.920;6.238;2022-09-09T10:49:50;18.70;99.90
52323;DHT22;38263;52.920;6.238;2022-09-09T10:52:29;18.60;99.90
52323;DHT22;38263;52.920;6.238;2022-09-09T10:55:02;18.80;99.90
52323;DHT22;38263;52.920;6.238;2022-09-09T10:57:42;18.50;99.90
52323;DHT22;38263;52.920;6.238;2022-09-09T11:02:56;18.40;99.90
52323;DHT22;38263;52.920;6.238;2022-09-09T11:05:33;18.20;99.90
52323;DHT22;38263;52.920;6.238;2022-09-09T11:08:03;18.30;99.90
52323;DHT22;38263;52.920;6.238;2022-09-09T11:13:58;18.40;99.90
52323;DHT22;38263;52.920;6.238;2022-09-09T11:16:42;18.50;99.90
52323;DHT22;38263;52.920;6.238;2022-09-09T11:19:16;18.40;99.90
52323;DHT22;38263;52.920;6.238;2022-09-09T11:21:49;18.30;99.90
52323;DHT22;38263;52.920;6.238;2022-09-09T11:24:21;18.30;99.90
52323;DHT22;38263;52.920;6.238;2022-09-09T11:26:52;18.20;99.90
52323;DHT22;38263;52.920;6.238;2022-09-09T11:32:09;18.20;99.90
52323;DHT22;38263;52.920;6.238;2022-09-09T11:34:53;18.10;99.90
52323;DHT22;38263;52.920;6.238;2022-09-09T11:37:45;18.20;99.90
52323;DHT22;38263;52.920;6.238;2022-09-09T11:40:24;18.10;99.90
52323;DHT22;38263;52.920;6.238;2022-09-09T11:45:32;18.40;99.90
52323;DHT22;38263;52.920;6.238;2022-09-09T11:47:59;18.40;99.90
52323;DHT22;38263;52.920;6.238;2022-09-09T11:53:02;18.60;99.90
52323;DHT22;38263;52.920;6.238;2022-09-09T11:55:33;18.70;99.90
52323;DHT22;38263;52.920;6.238;2022-09-09T12:03:04;18.80;99.90
52323;DHT22;38263;52.920;6.238;2022-09-09T12:05:46;19.00;99.90
52323;DHT22;38263;52.920;6.238;2022-09-09T12:08:26;19.10;99.90
52323;DHT22;38263;52.920;6.238;2022-09-09T12:10:54;19.20;99.90
52323;DHT22;38263;52.920;6.238;2022-09-09T12:13:23;19.10;99.90
52323;DHT22;38263;52.920;6.238;2022-09-09T12:15:51;19.10;99.90
52323;DHT22;38263;52.920;6.238;2022-09-09T12:18:39;19.00;99.90
52323;DHT22;38263;52.920;6.238;2022-09-09T12:21:27;19.30;99.90
52323;DHT22;38263;52.920;6.238;2022-09-09T12:24:03;19.20;99.90
52323;DHT22;38263;52.920;6.238;2022-09-09T12:26:43;19.20;99.90
52323;DHT22;38263;52.920;6.238;2022-09-09T12:29:23;19.10;99.90
52323;DHT22;38263;52.920;6.238;2022-09-09T12:32:11;19.10;99.90
52323;DHT22;38263;52.920;6.238;2022-09-09T12:34:40;19.20;99.90
52323;DHT22;38263;52.920;6.238;2022-09-09T12:40:21;19.10;99.90
52323;DHT22;38263;52.920;6.238;2022-09-09T12:42:47;19.00;99.90
52323;DHT22;38263;52.920;6.238;2022-09-09T12:45:18;19.10;99.90
52323;DHT22;38263;52.920;6.238;2022-09-09T12:47:54;18.80;99.90
52323;DHT22;38263;52.920;6.238;2022-09-09T12:50:27;18.90;99.90
52323;DHT22;38263;52.920;6.238;2022-09-09T12:52:59;19.00;99.90
52323;DHT22;38263;52.920;6.238;2022-09-09T12:55:35;18.80;99.90
52323;DHT22;38263;52.920;6.238;2022-09-09T12:58:02;18.90;99.90
52323;DHT22;38263;52.920;6.238;2022-09-09T13:00:33;18.80;99.90
52323;DHT22;38263;52.920;6.238;2022-09-09T13:03:01;19.10;99.90
52323;DHT22;38263;52.920;6.238;2022-09-09T13:05:34;19.10;99.90
52323;DHT22;38263;52.920;6.238;2022-09-09T13:08:05;19.40;99.90
52323;DHT22;38263;52.920;6.238;2022-09-09T13:10:34;20.70;99.90
52323;DHT22;38263;52.920;6.238;2022-09-09T13:13:01;19.40;99.90
52323;DHT22;38263;52.920;6.238;2022-09-09T13:15:28;19.70;99.90
52323;DHT22;38263;52.920;6.238;2022-09-09T13:17:59;19.60;99.90
52323;DHT22;38263;52.920;6.238;2022-09-09T13:20:27;19.70;99.90
52323;DHT22;38263;52.920;6.238;2022-09-09T13:22:54;19.50;99.90
52323;DHT22;38263;52.920;6.238;2022-09-09T13:25:26;19.20;99.90
52323;DHT22;38263;52.920;6.238;2022-09-09T13:27:58;19.10;99.90
52323;DHT22;38263;52.920;6.238;2022-09-09T13:30:28;20.30;99.90
52323;DHT22;38263;52.920;6.238;2022-09-09T13:33:18;18.70;99.90
52323;DHT22;38263;52.920;6.238;2022-09-09T13:38:33;18.40;99.90
52323;DHT22;38263;52.920;6.238;2022-09-09T13:41:03;18.20;99.90
52323;DHT22;38263;52.920;6.238;2022-09-09T13:43:44;18.20;99.90
52323;DHT22;38263;52.920;6.238;2022-09-09T13:49:21;18.30;99.90
52323;DHT22;38263;52.920;6.238;2022-09-09T13:52:01;18.20;99.90
52323;DHT22;38263;52.920;6.238;2022-09-09T13:54:27;18.10;99.90
52323;DHT22;38263;52.920;6.238;2022-09-09T13:56:53;18.20;99.90
52323;DHT22;38263;52.920;6.238;2022-09-09T13:59:20;18.20;99.90
52323;DHT22;38263;52.920;6.238;2022-09-09T14:01:47;18.50;99.90
52323;DHT22;38263;52.920;6.238;2022-09-09T14:04:14;18.50;99.90
52323;DHT22;38263;52.920;6.238;2022-09-09T14:06:41;18.70;99.90
52323;DHT22;38263;52.920;6.238;2022-09-09T14:09:10;18.60;99.90
52323;DHT22;38263;52.920;6.238;2022-09-09T14:11:36;18.60;99.90
52323;DHT22;38263;52.920;6.238;2022-09-09T14:14:01;18.80;99.90
52323;DHT22;38263;52.920;6.238;2022-09-09T14:16:27;18.90;99.90
52323;DHT22;38263;52.920;6.238;2022-09-09T14:18:53;18.80;99.90
52323;DHT22;38263;52.920;6.238;2022-09-09T14:21:18;18.40;99.90
52323;DHT22;38263;52.920;6.238;2022-09-09T14:23:44;18.50;99.90
52323;DHT22;38263;52.920;6.238;2022-09-09T14:26:10;18.60;99.90
52323;DHT22;38263;52.920;6.238;2022-09-09T14:28:36;18.50;99.90
52323;DHT22;38263;52.920;6.238;2022-09-09T14:31:03;18.50;99.90
52323;DHT22;38263;52.920;6.238;2022-09-09T14:33:30;18.60;99.90
52323;DHT22;38263;52.920;6.238;2022-09-09T14:35:57;18.30;99.90
52323;DHT22;38263;52.920;6.238;2022-09-09T14:38:23;18.40;99.90
52323;DHT22;38263;52.920;6.238;2022-09-09T14:40:48;18.20;99.90
52323;DHT22;38263;52.920;6.238;2022-09-09T14:43:14;18.30;99.90
52323;DHT22;38263;52.920;6.238;2022-09-09T14:45:40;18.30;99.90
52323;DHT22;38263;52.920;6.238;2022-09-09T14:48:05;18.20;99.90
52323;DHT22;38263;52.920;6.238;2022-09-09T14:50:31;18.20;99.90
52323;DHT22;38263;52.920;6.238;2022-09-09T14:52:56;18.30;99.90
52323;DHT22;38263;52.920;6.238;2022-09-09T14:55:22;18.30;99.90
52323;DHT22;38263;52.920;6.238;2022-09-09T14:57:48;18.50;99.90
52323;DHT22;38263;52.920;6.238;2022-09-09T15:00:14;18.40;99.90
52323;DHT22;38263;52.920;6.238;2022-09-09T15:02:40;18.40;99.90
52323;DHT22;38263;52.920;6.238;2022-09-09T15:05:06;18.40;99.90
52323;DHT22;38263;52.920;6.238;2022-09-09T15:07:31;18.20;99.90
52323;DHT22;38263;52.920;6.238;2022-09-09T15:09:57;18.20;99.90
52323;DHT22;38263;52.920;6.238;2022-09-09T15:12:23;18.30;99.90
52323;DHT22;38263;52.920;6.238;2022-09-09T15:14:49;18.40;99.90
52323;DHT22;38263;52.920;6.238;2022-09-09T15:17:16;18.20;99.90
52323;DHT22;38263;52.920;6.238;2022-09-09T15:19:41;18.50;99.90
52323;DHT22;38263;52.920;6.238;2022-09-09T15:22:08;18.30;99.90
52323;DHT22;38263;52.920;6.238;2022-09-09T15:24:34;18.40;99.90
52323;DHT22;38263;52.920;6.238;2022-09-09T15:27:00;18.30;99.90
52323;DHT22;38263;52.920;6.238;2022-09-09T15:29:26;18.10;99.90
52323;DHT22;38263;52.920;6.238;2022-09-09T15:31:53;18.60;99.90
52323;DHT22;38263;52.920;6.238;2022-09-09T15:34:19;18.10;99.90
52323;DHT22;38263;52.920;6.238;2022-09-09T15:36:45;18.20;99.90
52323;DHT22;38263;52.920;6.238;2022-09-09T15:39:13;18.50;99.90
52323;DHT22;38263;52.920;6.238;2022-09-09T15:41:41;18.30;99.90
52323;DHT22;38263;52.920;6.238;2022-09-09T15:44:08;18.50;99.90
52323;DHT22;38263;52.920;6.238;2022-09-09T15:46:40;18.30;99.90
52323;DHT22;38263;52.920;6.238;2022-09-09T15:49:17;18.10;99.90
52323;DHT22;38263;52.920;6.238;2022-09-09T15:51:52;18.40;99.90
52323;DHT22;38263;52.920;6.238;2022-09-09T15:54:19;18.10;99.90
52323;DHT22;38263;52.920;6.238;2022-09-09T15:56:47;18.50;99.90
52323;DHT22;38263;52.920;6.238;2022-09-09T15:59:15;18.50;99.90
52323;DHT22;38263;52.920;6.238;2022-09-09T16:01:41;18.20;99.90
52323;DHT22;38263;52.920;6.238;2022-09-09T16:04:09;18.10;99.90
52323;DHT22;38263;52.920;6.238;2022-09-09T16:06:35;18.20;99.90
52323;DHT22;38263;52.920;6.238;2022-09-09T16:09:04;18.30;99.90
52323;DHT22;38263;52.920;6.238;2022-09-09T16:11:32;18.40;99.90
52323;DHT22;38263;52.920;6.238;2022-09-09T16:13:59;18.20;99.90
52323;DHT22;38263;52.920;6.238;2022-09-09T16:16:27;18.00;99.90
52323;DHT22;38263;52.920;6.238;2022-09-09T16:18:58;18.20;99.90
52323;DHT22;38263;52.920;6.238;2022-09-09T16:21:26;17.90;99.90
52323;DHT22;38263;52.920;6.238;2022-09-09T16:23:55;18.10;99.90
52323;DHT22;38263;52.920;6.238;2022-09-09T16:26:22;17.90;99.90
52323;DHT22;38263;52.920;6.238;2022-09-09T16:28:48;17.70;99.90
52323;DHT22;38263;52.920;6.238;2022-09-09T16:31:19;17.60;99.90
52323;DHT22;38263;52.920;6.238;2022-09-09T16:33:45;17.80;99.90
52323;DHT22;38263;52.920;6.238;2022-09-09T16:36:13;17.40;99.90
52323;DHT22;38263;52.920;6.238;2022-09-09T16:38:39;17.40;99.90
52323;DHT22;38263;52.920;6.238;2022-09-09T16:41:06;17.30;99.90
52323;DHT22;38263;52.920;6.238;2022-09-09T16:43:33;17.30;99.90
52323;DHT22;38263;52.920;6.238;2022-09-09T16:45:59;17.40;99.90
52323;DHT22;38263;52.920;6.238;2022-09-09T16:48:32;17.50;99.90
52323;DHT22;38263;52.920;6.238;2022-09-09T16:51:05;17.30;99.90
52323;DHT22;38263;52.920;6.238;2022-09-09T16:53:32;17.20;99.90
52323;DHT22;38263;52.920;6.238;2022-09-09T16:55:57;17.40;99.90
52323;DHT22;38263;52.920;6.238;2022-09-09T16:58:23;17.50;99.90
52323;DHT22;38263;52.920;6.238;2022-09-09T17:00:49;17.20;99.90
52323;DHT22;38263;52.920;6.238;2022-09-09T17:03:16;17.50;99.90
52323;DHT22;38263;52.920;6.238;2022-09-09T17:05:42;17.10;99.90
52323;DHT22;38263;52.920;6.238;2022-09-09T17:08:07;17.30;99.90
52323;DHT22;38263;52.920;6.238;2022-09-09T17:10:39;17.30;99.90
52323;DHT22;38263;52.920;6.238;2022-09-09T17:13:06;17.10;99.90
52323;DHT22;38263;52.920;6.238;2022-09-09T17:15:31;17.10;99.90
52323;DHT22;38263;52.920;6.238;2022-09-09T17:17:57;16.90;99.90
52323;DHT22;38263;52.920;6.238;2022-09-09T17:20:22;17.10;99.90
52323;DHT22;38263;52.920;6.238;2022-09-09T17:22:48;17.30;99.90
52323;DHT22;38263;52.920;6.238;2022-09-09T17:25:14;17.00;99.90
52323;DHT22;38263;52.920;6.238;2022-09-09T17:27:40;17.00;99.90
52323;DHT22;38263;52.920;6.238;2022-09-09T17:30:06;17.00;99.90
52323;DHT22;38263;52.920;6.238;2022-09-09T17:32:31;17.10;99.90
52323;DHT22;38263;52.920;6.238;2022-09-09T17:34:57;17.30;99.90
52323;DHT22;38263;52.920;6.238;2022-09-09T17:37:22;17.20;99.90